createdAt,value
2023-02-08T00:02:02.132Z,7.57
2023-02-08T00:04:29.310Z,7.70
2023-02-08T00:06:56.476Z,6.63
2023-02-08T00:09:23.643Z,7.30
2023-02-08T00:11:50.784Z,7.37
2023-02-08T00:14:17.912Z,7.13
2023-02-08T00:16:45.976Z,6.60
2023-02-08T00:19:13.091Z,6.83
2023-02-08T00:21:40.285Z,7.23
2023-02-08T00:24:07.571Z,6.57
2023-02-08T00:26:34.764Z,7.03
2023-02-08T00:29:01.944Z,6.33
2023-02-08T00:31:29.375Z,6.90
2023-02-08T00:33:56.551Z,7.03
2023-02-08T00:36:23.718Z,6.53
2023-02-08T00:38:50.859Z,7.17
2023-02-08T00:41:18.057Z,6.03
2023-02-08T00:43:45.234Z,6.53
2023-02-08T00:46:12.518Z,6.83
2023-02-08T00:48:39.783Z,6.60
2023-02-08T00:51:14.137Z,6.63
2023-02-08T00:53:43.216Z,6.93
2023-02-08T00:56:11.248Z,5.93
2023-02-08T00:58:38.997Z,6.33
2023-02-08T01:01:06.786Z,6.13
2023-02-08T01:03:34.930Z,7.10
2023-02-08T01:06:02.809Z,6.53
2023-02-08T01:08:29.963Z,7.27
2023-02-08T01:11:25.234Z,7.13
2023-02-08T01:13:57.371Z,7.23
2023-02-08T01:16:25.898Z,6.90
2023-02-08T01:18:54.132Z,6.90
2023-02-08T01:21:23.790Z,6.47
2023-02-08T01:23:51.111Z,8.13
2023-02-08T01:26:19.061Z,7.93
2023-02-08T01:28:46.706Z,7.27
2023-02-08T01:31:16.087Z,7.37
2023-02-08T01:33:43.259Z,6.57
2023-02-08T01:36:10.925Z,6.90
2023-02-08T01:38:38.612Z,8.23
2023-02-08T01:41:06.514Z,7.77
2023-02-08T01:43:53.580Z,8.53
2023-02-08T01:46:21.471Z,6.90
2023-02-08T01:48:49.099Z,7.60
2023-02-08T01:51:18.588Z,7.67
2023-02-08T01:53:46.152Z,7.60
2023-02-08T01:56:14.974Z,7.10
2023-02-08T01:58:44.954Z,7.70
2023-02-08T02:01:12.930Z,7.10
2023-02-08T02:03:40.397Z,8.07
2023-02-08T02:06:09.854Z,6.97
2023-02-08T02:08:38.528Z,6.67
2023-02-08T02:11:05.716Z,7.27
2023-02-08T02:13:33.133Z,7.30
2023-02-08T02:16:00.277Z,6.37
2023-02-08T02:18:29.169Z,7.43
2023-02-08T02:21:06.529Z,7.10
2023-02-08T02:23:33.668Z,7.10
2023-02-08T02:26:09.796Z,7.20
2023-02-08T02:28:40.045Z,7.17
2023-02-08T02:31:13.171Z,7.33
2023-02-08T02:33:46.515Z,7.10
2023-02-08T02:36:24.199Z,7.40
2023-02-08T02:39:15.826Z,7.83
2023-02-08T02:42:04.373Z,7.30
2023-02-08T02:44:50.093Z,6.80
2023-02-08T02:47:23.353Z,6.70
2023-02-08T02:49:59.638Z,7.00
2023-02-08T02:52:34.300Z,6.80
2023-02-08T02:55:06.498Z,7.80
2023-02-08T02:57:34.244Z,7.63
2023-02-08T03:00:01.922Z,7.23
2023-02-08T03:02:29.189Z,7.77
2023-02-08T03:04:57.406Z,7.83
2023-02-08T03:07:37.529Z,7.13
2023-02-08T03:10:07.733Z,8.20
2023-02-08T03:12:46.386Z,8.37
2023-02-08T03:15:36.579Z,7.33
2023-02-08T03:18:16.923Z,7.90
2023-02-08T03:20:50.221Z,8.23
2023-02-08T03:23:23.057Z,7.27
2023-02-08T03:25:59.020Z,7.70
2023-02-08T03:28:33.720Z,7.57
2023-02-08T03:31:01.009Z,7.83
2023-02-08T03:33:31.204Z,8.20
2023-02-08T03:36:09.059Z,8.00
2023-02-08T03:38:38.702Z,8.97
2023-02-08T03:41:08.588Z,8.90
2023-02-08T03:43:40.958Z,7.97
2023-02-08T03:46:31.406Z,7.73
2023-02-08T03:49:04.595Z,8.30
2023-02-08T03:51:33.679Z,7.37
2023-02-08T03:54:01.887Z,7.80
2023-02-08T03:56:41.063Z,8.30
2023-02-08T03:59:10.554Z,8.23
2023-02-08T04:01:42.033Z,8.50
2023-02-08T04:04:09.449Z,7.87
2023-02-08T04:06:36.695Z,7.37
2023-02-08T04:09:03.933Z,7.47
2023-02-08T04:11:31.104Z,8.47
2023-02-08T04:13:58.212Z,8.77
2023-02-08T04:16:25.391Z,7.77
2023-02-08T04:18:52.980Z,7.63
2023-02-08T04:21:20.607Z,8.80
2023-02-08T04:23:47.763Z,8.00
2023-02-08T04:26:14.921Z,7.50
2023-02-08T04:28:42.072Z,8.63
2023-02-08T04:31:10.485Z,8.50
2023-02-08T04:33:37.837Z,7.67
2023-02-08T04:36:05.092Z,8.33
2023-02-08T04:38:32.253Z,7.90
2023-02-08T04:40:59.466Z,6.87
2023-02-08T04:43:26.583Z,7.23
2023-02-08T04:45:53.941Z,7.30
2023-02-08T04:48:21.148Z,7.83
2023-02-08T04:50:48.500Z,7.33
2023-02-08T04:53:15.654Z,7.13
2023-02-08T04:55:42.812Z,7.27
2023-02-08T04:58:09.955Z,7.33
2023-02-08T05:00:37.187Z,8.70
2023-02-08T05:03:04.886Z,10.30
2023-02-08T05:05:32.720Z,8.30
2023-02-08T05:08:00.288Z,7.93
2023-02-08T05:10:27.475Z,7.87
2023-02-08T05:12:54.823Z,7.27
2023-02-08T05:15:23.648Z,8.93
2023-02-08T05:17:50.931Z,9.40
2023-02-08T05:20:18.183Z,9.17
2023-02-08T05:22:45.339Z,14.00
2023-02-08T05:25:12.515Z,10.67
2023-02-08T05:27:39.709Z,7.40
2023-02-08T05:30:07.136Z,8.17
2023-02-08T05:32:34.292Z,8.73
2023-02-08T05:35:01.490Z,8.83
2023-02-08T05:37:28.701Z,7.93
2023-02-08T05:39:55.955Z,8.90
2023-02-08T05:42:23.146Z,7.70
2023-02-08T05:44:50.355Z,8.73
2023-02-08T05:47:17.572Z,8.03
2023-02-08T05:49:44.743Z,9.77
2023-02-08T05:52:11.941Z,8.53
2023-02-08T05:54:39.085Z,10.40
2023-02-08T05:57:06.438Z,8.47
2023-02-08T05:59:33.739Z,8.03
2023-02-08T06:02:00.908Z,8.20
2023-02-08T06:04:28.119Z,8.57
2023-02-08T06:06:55.299Z,8.63
2023-02-08T06:09:22.501Z,8.83
2023-02-08T06:11:49.953Z,8.20
2023-02-08T06:28:17.832Z,11.37
2023-02-08T06:30:45.410Z,10.77
2023-02-08T06:33:15.704Z,11.10
2023-02-08T06:35:49.453Z,11.07
2023-02-08T06:38:16.763Z,11.70
2023-02-08T06:40:44.144Z,11.70
2023-02-08T06:43:11.388Z,11.57
2023-02-08T06:45:38.808Z,12.03
2023-02-08T06:48:06.222Z,11.53
2023-02-08T06:50:33.655Z,11.00
2023-02-08T06:53:02.057Z,11.43
2023-02-08T06:55:29.358Z,11.63
2023-02-08T06:57:56.953Z,11.40
2023-02-08T07:00:24.313Z,11.77
2023-02-08T07:02:52.683Z,12.90
2023-02-08T07:05:20.181Z,11.43
2023-02-08T07:07:48.903Z,11.30
2023-02-08T07:10:16.893Z,12.00
2023-02-08T07:12:44.112Z,11.10
2023-02-08T07:15:13.346Z,11.13
2023-02-08T07:17:40.621Z,10.73
2023-02-08T07:20:08.287Z,10.30
2023-02-08T07:22:35.623Z,10.27
2023-02-08T07:25:02.921Z,10.77
2023-02-08T07:27:30.286Z,10.47
2023-02-08T07:29:57.579Z,10.23
2023-02-08T07:32:25.023Z,10.23
2023-02-08T07:34:52.508Z,9.50
2023-02-08T07:37:19.750Z,9.47
2023-02-08T07:39:47.126Z,8.80
2023-02-08T07:42:14.622Z,9.13
2023-02-08T07:44:41.934Z,9.70
2023-02-08T07:47:10.904Z,9.73
2023-02-08T07:49:38.146Z,10.90
2023-02-08T07:52:05.547Z,9.10
2023-02-08T07:54:32.806Z,9.20
2023-02-08T07:57:02.426Z,8.90
2023-02-08T07:59:30.804Z,8.60
2023-02-08T08:01:58.221Z,9.77
2023-02-08T08:04:25.752Z,8.90
2023-02-08T08:06:53.815Z,9.97
2023-02-08T08:09:21.195Z,9.50
2023-02-08T08:11:48.463Z,9.33
2023-02-08T08:14:15.779Z,10.10
2023-02-08T08:16:43.902Z,9.57
2023-02-08T08:19:11.284Z,9.37
2023-02-08T08:21:39.419Z,9.27
2023-02-08T08:24:07.101Z,9.50
2023-02-08T08:26:35.325Z,10.20
2023-02-08T08:29:03.089Z,9.03
2023-02-08T08:31:31.066Z,9.27
2023-02-08T08:33:58.532Z,9.67
2023-02-08T08:36:25.822Z,9.53
2023-02-08T08:38:53.165Z,9.07
2023-02-08T08:41:23.172Z,9.00
2023-02-08T08:43:50.567Z,9.23
2023-02-08T08:46:18.275Z,8.87
2023-02-08T08:48:46.182Z,9.10
2023-02-08T08:51:14.428Z,8.80
2023-02-08T08:53:43.348Z,8.87
2023-02-08T08:56:10.811Z,8.70
2023-02-08T08:58:38.152Z,8.57
2023-02-08T09:01:05.704Z,9.40
2023-02-08T09:03:33.117Z,9.27
2023-02-08T09:06:00.610Z,8.77
2023-02-08T09:08:27.945Z,9.13
2023-02-08T09:10:55.400Z,9.00
2023-02-08T09:13:22.741Z,8.70
2023-02-08T09:15:50.403Z,8.80
2023-02-08T09:18:18.103Z,8.93
2023-02-08T09:20:45.741Z,8.93
2023-02-08T09:23:14.632Z,9.50
2023-02-08T09:25:42.190Z,8.80
2023-02-08T09:28:09.503Z,8.20
2023-02-08T09:30:37.051Z,8.13
2023-02-08T09:33:04.407Z,7.80
2023-02-08T09:35:32.024Z,9.47
2023-02-08T09:38:02.604Z,8.40
2023-02-08T09:40:44.105Z,8.97
2023-02-08T09:43:23.167Z,8.67
2023-02-08T09:46:06.453Z,9.17
2023-02-08T09:48:37.816Z,9.30
2023-02-08T09:51:08.656Z,8.40
2023-02-08T09:53:40.500Z,8.60
2023-02-08T09:56:10.448Z,8.83
2023-02-08T09:58:42.855Z,8.03
2023-02-08T10:01:22.336Z,8.17
2023-02-08T10:03:51.638Z,8.73
2023-02-08T10:06:20.582Z,9.83
2023-02-08T10:08:51.967Z,11.43
2023-02-08T10:11:39.929Z,9.57
2023-02-08T10:14:07.521Z,8.80
2023-02-08T10:16:41.205Z,9.90
2023-02-08T10:19:09.112Z,11.97
2023-02-08T10:21:38.214Z,13.30
2023-02-08T10:24:05.773Z,8.57
2023-02-08T10:26:47.207Z,8.53
2023-02-08T10:29:33.456Z,8.77
2023-02-08T10:32:15.043Z,8.80
2023-02-08T10:34:49.936Z,7.87
2023-02-08T10:37:21.802Z,8.10
2023-02-08T10:39:51.116Z,8.10
2023-02-08T10:42:35.552Z,8.33
2023-02-08T10:45:18.856Z,8.03
2023-02-08T10:47:56.549Z,7.67
2023-02-08T10:50:30.526Z,7.17
2023-02-08T10:53:02.604Z,6.90
2023-02-08T10:55:34.186Z,7.50
2023-02-08T10:58:06.726Z,7.27
2023-02-08T11:00:43.862Z,7.10
2023-02-08T11:03:25.068Z,7.17
2023-02-08T11:05:56.290Z,6.67
2023-02-08T11:08:26.475Z,6.80
2023-02-08T11:11:11.018Z,6.80
2023-02-08T11:13:51.111Z,5.93
2023-02-08T11:16:24.568Z,6.50
2023-02-08T11:19:17.812Z,6.70
2023-02-08T11:21:53.321Z,6.70
2023-02-08T11:24:20.830Z,7.10
2023-02-08T11:26:51.200Z,6.97
2023-02-08T11:29:24.965Z,6.80
2023-02-08T11:32:05.444Z,7.30
2023-02-08T11:34:45.544Z,7.10
2023-02-08T11:37:16.586Z,7.13
2023-02-08T11:39:52.275Z,7.93
2023-02-08T11:42:33.686Z,7.50
2023-02-08T11:45:07.466Z,7.97
2023-02-08T11:47:36.121Z,7.40
2023-02-08T11:50:05.560Z,8.37
2023-02-08T11:52:35.738Z,7.67
2023-02-08T11:55:18.917Z,7.33
2023-02-08T11:57:55.545Z,7.87
2023-02-08T12:00:23.974Z,7.73
2023-02-08T12:02:51.956Z,8.07
2023-02-08T12:05:21.523Z,8.37
2023-02-08T12:07:55.053Z,10.23
2023-02-08T12:10:32.185Z,9.60
2023-02-08T12:13:05.445Z,8.73
2023-02-08T12:15:58.517Z,9.00
2023-02-08T12:18:32.848Z,8.97
2023-02-08T12:21:03.875Z,8.67
2023-02-08T12:23:42.180Z,9.17
2023-02-08T12:26:09.674Z,10.10
2023-02-08T12:28:46.849Z,8.67
2023-02-08T12:31:14.633Z,10.10
2023-02-08T12:33:50.982Z,9.60
2023-02-08T12:36:28.520Z,8.27
2023-02-08T12:39:19.610Z,8.33
2023-02-08T12:42:12.241Z,8.73
2023-02-08T12:44:46.135Z,9.10
2023-02-08T12:47:14.130Z,8.83
2023-02-08T12:49:47.918Z,9.83
2023-02-08T12:52:21.369Z,8.93
2023-02-08T12:55:11.694Z,9.07
2023-02-08T12:57:39.394Z,8.40
2023-02-08T13:00:08.974Z,8.67
2023-02-08T13:02:44.768Z,9.37
2023-02-08T13:05:17.103Z,9.37
2023-02-08T13:07:45.444Z,8.97
2023-02-08T13:10:31.883Z,9.07
2023-02-08T13:13:07.311Z,8.83
2023-02-08T13:15:40.593Z,8.50
2023-02-08T13:18:14.930Z,9.00
2023-02-08T13:20:49.560Z,8.87
2023-02-08T13:23:50.677Z,8.80
2023-02-08T13:26:19.579Z,8.00
2023-02-08T13:28:51.722Z,9.00
2023-02-08T13:31:23.332Z,8.10
2023-02-08T13:34:01.324Z,9.20
2023-02-08T13:36:34.449Z,9.23
2023-02-08T13:39:03.654Z,9.27
2023-02-08T13:41:31.716Z,8.20
2023-02-08T13:44:01.773Z,8.50
2023-02-08T13:46:35.654Z,8.43
2023-02-08T13:49:03.227Z,9.43
2023-02-08T13:51:33.716Z,8.60
2023-02-08T13:54:01.170Z,8.53
2023-02-08T13:56:43.771Z,9.50
2023-02-08T13:59:33.878Z,8.67
2023-02-08T14:02:17.709Z,8.73
2023-02-08T14:04:48.760Z,9.20
2023-02-08T14:07:16.014Z,9.47
2023-02-08T14:09:52.465Z,9.73
2023-02-08T14:12:28.856Z,10.33
2023-02-08T14:15:25.823Z,9.40
2023-02-08T14:17:57.946Z,9.87
2023-02-08T14:20:46.390Z,9.70
2023-02-08T14:23:22.892Z,10.40
2023-02-08T14:25:51.042Z,10.63
2023-02-08T14:28:26.541Z,10.20
2023-02-08T14:30:55.336Z,9.80
2023-02-08T14:33:25.972Z,9.93
2023-02-08T14:35:58.683Z,9.63
2023-02-08T14:38:26.018Z,10.20
2023-02-08T14:40:54.406Z,10.57
2023-02-08T14:43:23.077Z,9.77
2023-02-08T14:45:51.546Z,10.67
2023-02-08T14:48:21.841Z,10.23
2023-02-08T14:50:52.243Z,11.50
2023-02-08T14:53:22.378Z,10.13
2023-02-08T14:55:51.605Z,10.13
2023-02-08T14:58:30.357Z,10.60
2023-02-08T15:01:00.693Z,10.73
2023-02-08T15:03:28.808Z,11.30
2023-02-08T15:05:59.187Z,12.37
2023-02-08T15:08:26.689Z,12.57
2023-02-08T15:10:54.117Z,13.90
2023-02-08T15:13:24.424Z,14.43
2023-02-08T15:15:53.916Z,14.20
2023-02-08T15:18:26.501Z,14.53
2023-02-08T15:21:00.361Z,13.40
2023-02-08T15:23:27.701Z,13.47
2023-02-08T15:26:00.532Z,13.40
2023-02-08T15:28:29.505Z,14.67
2023-02-08T15:31:01.777Z,15.40
2023-02-08T15:33:29.316Z,13.63
2023-02-08T15:36:06.633Z,14.47
2023-02-08T15:38:34.959Z,14.63
2023-02-08T15:41:02.338Z,15.30
2023-02-08T15:43:29.791Z,14.00
2023-02-08T15:45:58.328Z,14.90
2023-02-08T15:48:26.507Z,15.10
2023-02-08T15:50:54.601Z,14.67
2023-02-08T15:53:23.462Z,16.03
2023-02-08T15:55:56.548Z,14.60
2023-02-08T15:58:29.041Z,14.00
2023-02-08T16:00:57.893Z,14.53
2023-02-08T16:03:26.141Z,14.80
2023-02-08T16:05:56.272Z,15.37
2023-02-08T16:08:31.593Z,15.30
2023-02-08T16:11:09.842Z,16.10
2023-02-08T16:13:38.625Z,14.30
2023-02-08T16:16:18.390Z,15.77
2023-02-08T16:18:59.686Z,15.00
2023-02-08T16:21:34.046Z,14.40
2023-02-08T16:24:21.537Z,15.90
2023-02-08T16:26:55.162Z,16.97
2023-02-08T16:29:25.698Z,18.50
2023-02-08T16:32:01.117Z,15.70
2023-02-08T16:34:29.602Z,16.57
2023-02-08T16:36:56.849Z,17.20
2023-02-08T16:39:36.324Z,17.33
2023-02-08T16:42:15.933Z,17.33
2023-02-08T16:44:58.376Z,17.37
2023-02-08T16:47:28.213Z,17.50
2023-02-08T16:49:55.754Z,17.93
2023-02-08T16:52:23.075Z,17.80
2023-02-08T16:54:50.372Z,17.30
2023-02-08T16:57:17.633Z,17.93
2023-02-08T16:59:45.100Z,17.20
2023-02-08T17:02:13.363Z,17.57
2023-02-08T17:04:40.909Z,16.93
2023-02-08T17:07:12.524Z,14.80
2023-02-08T17:09:42.318Z,15.73
2023-02-08T17:12:21.798Z,14.83
2023-02-08T17:14:50.142Z,16.90
2023-02-08T17:17:17.981Z,22.77
2023-02-08T17:19:47.086Z,16.77
2023-02-08T17:22:14.422Z,16.93
2023-02-08T17:24:42.234Z,17.47
2023-02-08T17:27:12.572Z,17.33
2023-02-08T17:29:39.815Z,16.60
2023-02-08T17:32:07.165Z,17.00
2023-02-08T17:34:36.689Z,16.87
2023-02-08T17:37:04.540Z,16.90
2023-02-08T17:39:31.926Z,16.33
2023-02-08T17:41:59.319Z,16.57
2023-02-08T17:44:26.746Z,21.13
2023-02-08T17:46:56.810Z,20.00
2023-02-08T17:49:24.171Z,18.93
2023-02-08T17:51:52.082Z,18.50
2023-02-08T17:54:21.085Z,19.90
2023-02-08T17:56:48.466Z,18.00
2023-02-08T17:59:22.027Z,16.60
2023-02-08T18:01:49.850Z,18.40
2023-02-08T18:04:17.206Z,14.77
2023-02-08T18:06:44.636Z,16.27
2023-02-08T18:09:12.009Z,13.97
2023-02-08T18:11:39.311Z,16.13
2023-02-08T18:14:06.626Z,17.10
2023-02-08T18:16:36.007Z,15.50
2023-02-08T18:19:03.399Z,14.53
2023-02-08T18:21:34.057Z,15.43
2023-02-08T18:24:02.556Z,15.47
2023-02-08T18:26:33.401Z,15.07
2023-02-08T18:29:02.560Z,15.50
2023-02-08T18:31:30.479Z,14.80
2023-02-08T18:33:58.441Z,16.77
2023-02-08T18:36:26.184Z,16.00
2023-02-08T18:38:56.111Z,14.60
2023-02-08T18:41:25.288Z,22.57
2023-02-08T18:43:55.077Z,30.80
2023-02-08T18:46:23.874Z,19.27
2023-02-08T18:48:53.864Z,15.67
2023-02-08T18:51:22.670Z,15.67
2023-02-08T18:53:51.593Z,18.40
2023-02-08T18:56:21.609Z,16.47
2023-02-08T18:58:49.158Z,15.33
2023-02-08T19:01:18.178Z,15.20
2023-02-08T19:03:45.526Z,18.77
2023-02-08T19:06:14.192Z,18.30
2023-02-08T19:08:42.097Z,14.00
2023-02-08T19:11:17.064Z,15.10
2023-02-08T19:13:44.809Z,17.57
2023-02-08T19:16:12.712Z,16.53
2023-02-08T19:18:40.596Z,15.73
2023-02-08T19:21:09.207Z,15.47
2023-02-08T19:23:37.150Z,14.43
2023-02-08T19:26:08.924Z,14.83
2023-02-08T19:28:36.573Z,17.27
2023-02-08T19:31:09.883Z,15.17
2023-02-08T19:33:38.044Z,22.40
2023-02-08T19:36:16.049Z,16.27
2023-02-08T19:38:43.614Z,15.87
2023-02-08T19:41:14.789Z,15.33
2023-02-08T19:43:42.199Z,15.60
2023-02-08T19:46:17.217Z,15.73
2023-02-08T19:48:44.607Z,15.53
2023-02-08T19:51:11.880Z,16.27
2023-02-08T19:53:39.599Z,17.23
2023-02-08T19:56:08.425Z,16.37
2023-02-08T19:58:36.877Z,33.27
2023-02-08T20:01:11.943Z,16.37
2023-02-08T20:03:39.186Z,15.50
2023-02-08T20:06:07.014Z,16.43
2023-02-08T20:08:34.278Z,14.73
2023-02-08T20:11:01.540Z,15.40
2023-02-08T20:13:29.005Z,14.90
2023-02-08T20:15:59.892Z,14.73
2023-02-08T20:18:27.256Z,16.00
2023-02-08T20:21:01.874Z,15.30
2023-02-08T20:23:29.340Z,14.13
2023-02-08T20:26:05.895Z,15.07
2023-02-08T20:28:33.374Z,14.97
2023-02-08T20:31:00.883Z,15.67
2023-02-08T20:33:28.382Z,15.27
2023-02-08T20:35:55.859Z,14.80
2023-02-08T20:38:23.340Z,14.40
2023-02-08T20:40:50.779Z,13.93
2023-02-08T20:43:18.142Z,13.77
2023-02-08T20:45:45.808Z,27.87
2023-02-08T20:48:13.369Z,26.77
2023-02-08T20:50:40.753Z,36.30
2023-02-08T20:53:08.077Z,32.13
2023-02-08T20:55:35.459Z,14.97
2023-02-08T20:58:02.752Z,14.70
2023-02-08T21:00:40.223Z,15.43
2023-02-08T21:03:08.989Z,14.43
2023-02-08T21:05:36.326Z,15.03
2023-02-08T21:08:03.805Z,15.77
2023-02-08T21:10:31.285Z,16.40
2023-02-08T21:12:58.653Z,15.37
2023-02-08T21:15:25.962Z,15.57
2023-02-08T21:17:53.354Z,15.87
2023-02-08T21:20:20.972Z,15.60
2023-02-08T21:22:48.503Z,15.93
2023-02-08T21:25:15.796Z,15.80
2023-02-08T21:27:43.182Z,15.50
2023-02-08T21:30:10.963Z,14.47
2023-02-08T21:32:38.283Z,15.07
2023-02-08T21:35:05.729Z,14.00
2023-02-08T21:37:34.325Z,15.50
2023-02-08T21:40:01.609Z,14.60
2023-02-08T21:42:28.880Z,15.37
2023-02-08T21:44:56.197Z,15.60
2023-02-08T21:47:23.468Z,14.80
2023-02-08T21:50:09.326Z,13.90
2023-02-08T21:52:55.502Z,14.80
2023-02-08T21:55:22.814Z,16.10
2023-02-08T21:57:50.050Z,15.20
2023-02-08T22:00:17.444Z,14.57
2023-02-08T22:02:44.868Z,13.73
2023-02-08T22:05:19.713Z,14.60
2023-02-08T22:07:54.053Z,14.20
2023-02-08T22:10:23.030Z,15.53
2023-02-08T22:12:52.455Z,16.10
2023-02-08T22:15:20.753Z,16.67
2023-02-08T22:17:48.331Z,16.90
2023-02-08T22:20:16.136Z,16.73
2023-02-08T22:22:43.484Z,20.77
2023-02-08T22:25:10.838Z,24.40
2023-02-08T22:27:39.262Z,26.20
2023-02-08T22:30:07.221Z,19.37
2023-02-08T22:32:34.542Z,18.07
2023-02-08T22:35:02.018Z,17.37
2023-02-08T22:37:29.818Z,17.00
2023-02-08T22:39:57.149Z,17.40
2023-02-08T22:42:24.508Z,18.03
2023-02-08T22:44:54.219Z,18.17
2023-02-08T22:47:21.823Z,16.70
2023-02-08T22:49:49.325Z,17.13
2023-02-08T22:52:16.793Z,16.27
2023-02-08T22:54:44.853Z,15.00
2023-02-08T22:57:12.476Z,17.27
2023-02-08T22:59:40.411Z,16.50
2023-02-08T23:02:07.927Z,17.97
2023-02-08T23:04:35.904Z,17.87
2023-02-08T23:07:03.311Z,16.40
2023-02-08T23:09:31.321Z,17.13
2023-02-08T23:11:59.404Z,18.67
2023-02-08T23:14:27.768Z,17.77
2023-02-08T23:16:56.140Z,17.07
2023-02-08T23:19:24.562Z,17.40
2023-02-08T23:21:52.366Z,16.43
2023-02-08T23:24:19.748Z,17.27
2023-02-08T23:26:48.184Z,17.00
2023-02-08T23:29:15.440Z,16.43
2023-02-08T23:31:42.837Z,16.57
2023-02-08T23:34:11.768Z,17.73
2023-02-08T23:36:39.690Z,18.90
2023-02-08T23:39:07.201Z,19.33
2023-02-08T23:41:34.726Z,19.33
2023-02-08T23:44:02.203Z,16.77
2023-02-08T23:46:30.228Z,16.47
2023-02-08T23:48:57.658Z,18.27
2023-02-08T23:51:25.789Z,18.47
2023-02-08T23:53:54.233Z,19.03
2023-02-08T23:56:26.151Z,14.83
2023-02-08T23:58:55.058Z,15.27
